createdAt,value
2023-03-05T00:00:44.880Z,1.30
2023-03-05T00:05:57.975Z,1.80
2023-03-05T00:11:07.616Z,1.30
2023-03-05T00:16:17.720Z,1.40
2023-03-05T00:21:27.392Z,2.00
2023-03-05T00:26:37.358Z,1.50
2023-03-05T00:31:45.771Z,1.20
2023-03-05T00:36:54.732Z,0.90
2023-03-05T00:42:03.482Z,1.20
2023-03-05T00:47:12.480Z,0.80
2023-03-05T00:52:21.258Z,1.40
2023-03-05T00:57:29.127Z,1.30
2023-03-05T01:02:37.853Z,1.00
2023-03-05T01:07:46.694Z,1.20
2023-03-05T01:12:55.216Z,1.50
2023-03-05T01:18:03.631Z,1.10
2023-03-05T01:23:12.100Z,1.20
2023-03-05T01:28:21.074Z,1.30
2023-03-05T01:33:29.676Z,1.30
2023-03-05T01:38:37.780Z,1.70
2023-03-05T01:43:47.375Z,1.30
2023-03-05T01:48:58.121Z,1.50
2023-03-05T01:54:08.333Z,1.10
2023-03-05T01:59:18.496Z,0.90
2023-03-05T02:04:35.766Z,1.00
2023-03-05T02:09:45.023Z,1.00
2023-03-05T02:14:59.898Z,0.90
2023-03-05T02:20:12.198Z,1.10
2023-03-05T02:25:24.023Z,1.20
2023-03-05T02:30:33.031Z,0.80
2023-03-05T02:35:41.437Z,1.00
2023-03-05T02:40:50.195Z,1.10
2023-03-05T02:45:58.714Z,1.50
2023-03-05T02:51:08.973Z,1.30
2023-03-05T02:56:17.619Z,1.40
2023-03-05T03:01:28.811Z,1.30
2023-03-05T03:06:37.838Z,1.50
2023-03-05T03:11:46.025Z,1.60
2023-03-05T03:16:54.295Z,1.00
2023-03-05T03:22:03.092Z,1.40
2023-03-05T03:27:11.913Z,1.10
2023-03-05T03:32:20.546Z,1.50
2023-03-05T03:37:29.779Z,1.30
2023-03-05T03:42:38.167Z,1.60
2023-03-05T03:47:46.400Z,1.30
2023-03-05T03:52:55.238Z,1.00
2023-03-05T03:58:03.811Z,1.10
2023-03-05T04:03:12.035Z,1.70
2023-03-05T04:08:20.875Z,0.90
2023-03-05T04:13:28.243Z,1.20
2023-03-05T04:18:35.711Z,1.30
2023-03-05T04:23:44.063Z,1.10
2023-03-05T04:28:52.681Z,0.60
2023-03-05T04:34:01.460Z,1.10
2023-03-05T04:39:09.738Z,1.20
2023-03-05T04:44:18.112Z,1.10
2023-03-05T04:49:26.810Z,1.60
2023-03-05T04:54:35.509Z,1.10
2023-03-05T04:59:44.667Z,1.10
2023-03-05T05:04:56.268Z,1.00
2023-03-05T05:10:04.485Z,1.40
2023-03-05T05:15:14.038Z,1.00
2023-03-05T05:20:22.683Z,1.20
2023-03-05T05:25:30.744Z,1.20
2023-03-05T05:30:39.014Z,1.00
2023-03-05T05:35:47.226Z,1.40
2023-03-05T05:40:55.491Z,1.50
2023-03-05T05:46:06.099Z,1.60
2023-03-05T05:51:16.594Z,2.20
2023-03-05T05:56:25.970Z,2.00
2023-03-05T06:01:35.141Z,1.80
2023-03-05T06:06:42.595Z,2.00
2023-03-05T06:11:50.859Z,2.00
2023-03-05T06:16:58.161Z,1.70
2023-03-05T06:22:05.517Z,1.70
2023-03-05T06:27:13.752Z,2.00
2023-03-05T06:32:22.134Z,1.90
2023-03-05T06:37:30.782Z,2.10
2023-03-05T06:42:39.768Z,1.90
2023-03-05T06:47:47.942Z,1.60
2023-03-05T06:52:56.281Z,2.40
2023-03-05T06:58:04.892Z,1.80
2023-03-05T07:03:13.700Z,1.50
2023-03-05T07:08:22.470Z,1.50
2023-03-05T07:13:30.666Z,1.80
2023-03-05T07:18:39.068Z,1.40
2023-03-05T07:23:47.465Z,1.20
2023-03-05T07:28:56.121Z,1.40
2023-03-05T07:34:06.880Z,1.20
2023-03-05T07:39:17.947Z,1.20
2023-03-05T07:44:26.301Z,0.90
2023-03-05T07:49:36.692Z,1.20
2023-03-05T07:54:45.371Z,1.20
2023-03-05T07:59:53.968Z,0.90
2023-03-05T08:05:02.467Z,1.70
2023-03-05T08:10:13.145Z,1.50
2023-03-05T08:15:22.118Z,1.60
2023-03-05T08:20:30.079Z,1.40
2023-03-05T08:25:39.914Z,1.30
2023-03-05T08:30:48.284Z,1.40
2023-03-05T08:35:57.229Z,1.70
2023-03-05T08:41:05.880Z,1.40
2023-03-05T08:46:15.687Z,1.00
2023-03-05T08:51:26.686Z,1.00
2023-03-05T08:56:35.032Z,1.30
2023-03-05T09:01:44.176Z,0.80
2023-03-05T09:06:53.637Z,1.20
2023-03-05T09:12:04.092Z,0.90
2023-03-05T09:17:11.322Z,1.20
2023-03-05T09:22:19.945Z,1.10
2023-03-05T09:27:28.354Z,1.10
2023-03-05T09:32:35.916Z,1.10
2023-03-05T09:37:43.346Z,0.80
2023-03-05T09:43:03.870Z,0.90
2023-03-05T09:48:21.180Z,1.20
2023-03-05T09:53:40.149Z,0.90
2023-03-05T09:58:56.137Z,1.00
2023-03-05T10:04:11.548Z,0.90
2023-03-05T10:09:25.932Z,0.80
2023-03-05T10:14:37.629Z,0.60
2023-03-05T10:20:09.548Z,0.50
2023-03-05T10:25:26.687Z,0.40
2023-03-05T10:30:56.285Z,0.40
2023-03-05T10:36:46.325Z,0.50
2023-03-05T10:42:06.702Z,0.40
2023-03-05T10:47:24.784Z,0.60
2023-03-05T10:52:38.457Z,0.50
2023-03-05T10:57:47.802Z,0.60
2023-03-05T11:03:01.281Z,0.50
2023-03-05T11:08:32.588Z,0.70
2023-03-05T11:13:46.109Z,0.60
2023-03-05T11:19:13.120Z,0.60
2023-03-05T11:24:22.879Z,2.60
2023-03-05T11:29:35.176Z,5.80
2023-03-05T11:40:07.848Z,7.70
2023-03-05T11:45:21.239Z,12.70
2023-03-05T11:50:32.661Z,22.20
2023-03-05T11:55:47.040Z,24.10
2023-03-05T12:00:55.509Z,16.10
2023-03-05T12:06:10.388Z,5.90
2023-03-05T12:11:23.407Z,2.60
2023-03-05T12:16:39.843Z,0.80
2023-03-05T12:21:51.039Z,0.80
2023-03-05T12:27:18.250Z,0.70
2023-03-05T12:33:03.631Z,0.60
2023-03-05T12:38:30.974Z,1.00
2023-03-05T12:43:38.982Z,1.00
2023-03-05T12:48:49.519Z,0.70
2023-03-05T12:53:58.409Z,0.60
2023-03-05T12:59:08.407Z,0.50
2023-03-05T13:04:21.850Z,0.50
2023-03-05T13:09:32.304Z,0.60
2023-03-05T13:14:46.875Z,0.30
2023-03-05T13:19:56.028Z,0.40
2023-03-05T13:25:17.116Z,0.80
2023-03-05T13:30:32.195Z,0.40
2023-03-05T13:35:48.964Z,0.40
2023-03-05T13:41:24.291Z,0.70
2023-03-05T13:46:36.811Z,0.30
2023-03-05T13:51:49.689Z,0.80
2023-03-05T13:57:01.123Z,0.50
2023-03-05T14:02:20.104Z,1.20
2023-03-05T14:07:37.117Z,0.70
2023-03-05T14:12:47.253Z,0.80
2023-03-05T14:18:09.543Z,0.60
2023-03-05T14:23:36.461Z,0.40
2023-03-05T14:28:44.949Z,0.50
2023-03-05T14:33:54.272Z,0.40
2023-03-05T14:39:02.677Z,0.70
2023-03-05T14:44:20.952Z,0.60
2023-03-05T14:49:29.585Z,0.30
2023-03-05T14:54:40.948Z,1.10
2023-03-05T14:59:49.385Z,1.10
2023-03-05T15:04:57.873Z,1.30
2023-03-05T15:10:06.752Z,0.50
2023-03-05T15:15:17.222Z,0.60
2023-03-05T15:20:27.506Z,1.30
2023-03-05T15:25:35.587Z,0.50
2023-03-05T15:30:46.272Z,0.80
2023-03-05T15:35:55.239Z,0.60
2023-03-05T15:41:04.337Z,0.60
2023-03-05T15:46:12.600Z,0.60
2023-03-05T15:51:22.226Z,0.60
2023-03-05T15:56:32.497Z,0.70
2023-03-05T16:01:40.670Z,0.80
2023-03-05T16:06:51.335Z,0.60
2023-03-05T16:11:59.239Z,0.60
2023-03-05T16:17:07.769Z,0.50
2023-03-05T16:22:15.672Z,0.50
2023-03-05T16:27:23.851Z,0.50
2023-03-05T16:32:32.385Z,0.70
2023-03-05T16:37:40.574Z,0.50
2023-03-05T16:42:49.791Z,0.60
2023-03-05T16:47:58.145Z,0.50
2023-03-05T16:53:06.828Z,0.50
2023-03-05T16:58:14.956Z,0.30
2023-03-05T17:03:23.116Z,0.30
2023-03-05T17:08:32.116Z,0.60
2023-03-05T17:13:40.939Z,0.40
2023-03-05T17:18:50.210Z,0.50
2023-03-05T17:23:59.364Z,0.70
2023-03-05T17:29:08.260Z,0.60
2023-03-05T17:34:16.787Z,0.80
2023-03-05T17:39:26.609Z,1.00
2023-03-05T17:44:33.998Z,0.70
2023-03-05T17:49:43.140Z,1.10
2023-03-05T17:54:53.624Z,0.90
2023-03-05T18:00:02.337Z,0.70
2023-03-05T18:05:21.723Z,1.20
2023-03-05T18:10:30.457Z,1.10
2023-03-05T18:15:42.485Z,2.20
2023-03-05T18:20:51.416Z,1.70
2023-03-05T18:26:00.157Z,1.70
2023-03-05T18:31:09.075Z,2.20
2023-03-05T18:36:18.096Z,2.50
2023-03-05T18:41:29.034Z,2.70
2023-03-05T18:46:37.192Z,2.00
2023-03-05T18:51:46.278Z,2.20
2023-03-05T18:56:54.728Z,2.30
2023-03-05T19:02:03.342Z,2.40
2023-03-05T19:07:12.312Z,2.70
2023-03-05T19:12:20.961Z,2.30
2023-03-05T19:17:29.832Z,3.20
2023-03-05T19:22:38.601Z,2.90
2023-03-05T19:27:46.252Z,3.10
2023-03-05T19:32:54.758Z,2.60
2023-03-05T19:38:02.137Z,2.30
2023-03-05T19:43:10.123Z,2.20
2023-03-05T19:48:17.905Z,2.60
2023-03-05T19:53:25.961Z,2.30
2023-03-05T19:58:35.490Z,2.20
2023-03-05T20:03:44.957Z,3.30
2023-03-05T20:08:54.150Z,2.50
2023-03-05T20:14:03.182Z,2.30
2023-03-05T20:19:17.711Z,2.70
2023-03-05T20:54:37.592Z,3.00
2023-03-05T20:59:44.923Z,2.50
2023-03-05T21:04:52.576Z,3.30
2023-03-05T21:10:00.260Z,2.60
2023-03-05T21:15:09.103Z,2.80
2023-03-05T21:20:22.596Z,2.50
2023-03-05T21:25:31.231Z,2.80
2023-03-05T21:30:42.578Z,2.50
2023-03-05T21:35:53.370Z,2.70
2023-03-05T21:41:02.201Z,3.20
2023-03-05T21:46:09.805Z,3.10
2023-03-05T21:57:38.055Z,5.30
2023-03-05T22:02:46.292Z,3.60
2023-03-05T22:07:54.141Z,3.60
2023-03-05T22:13:14.296Z,3.70
2023-03-05T22:18:23.569Z,4.00
2023-03-05T22:23:34.687Z,4.30
2023-03-05T22:28:42.970Z,4.20
2023-03-05T22:33:50.875Z,3.60
2023-03-05T22:38:58.548Z,3.70
2023-03-05T22:44:06.092Z,4.80
2023-03-05T22:49:13.705Z,3.70
2023-03-05T22:54:21.277Z,3.30
2023-03-05T22:59:29.977Z,3.40
2023-03-05T23:04:50.999Z,3.50
2023-03-05T23:10:00.723Z,3.80
2023-03-05T23:15:12.409Z,3.60
2023-03-05T23:20:21.327Z,3.50
2023-03-05T23:25:32.877Z,3.50
2023-03-05T23:30:41.134Z,3.80
2023-03-05T23:35:55.534Z,3.50
2023-03-05T23:41:04.110Z,3.20
2023-03-05T23:46:15.470Z,3.60
2023-03-05T23:51:23.356Z,3.50
2023-03-05T23:56:31.844Z,2.90
